Time;durP1;ratioP1;P1;durP2;ratioP2;P2;SDS_P1;SDS_P2;PMS_P1;PMS_P2;Temp;Humidity;BMP_temperature;BMP_pressure;BME280_temperature;BME280_humidity;BME280_pressure;Samples;Min_cycle;Max_cycle;Signal;HPM_P1;HPM_P2
2022/04/15 00:01:38;;;;;;;14.43;8.60;;;13.30;99.90;;;;;;5019856;28;20254;-54
2022/04/15 00:04:06;;;;;;;8.90;7.93;;;13.50;99.90;;;;;;5020822;28;20197;-47
2022/04/15 00:06:37;;;;;;;10.13;9.10;;;13.60;99.90;;;;;;5019505;28;20205;-50
2022/04/15 00:09:04;;;;;;;12.68;9.73;;;13.60;99.90;;;;;;5023834;28;20481;-50
2022/04/15 00:11:32;;;;;;;10.95;8.73;;;13.60;99.90;;;;;;5021849;28;20217;-47
2022/04/15 00:14:00;;;;;;;9.40;7.72;;;13.50;99.90;;;;;;5020080;28;20223;-52
2022/04/15 00:16:27;;;;;;;8.95;7.22;;;13.50;99.90;;;;;;5019566;28;20232;-48
2022/04/15 00:18:54;;;;;;;9.63;8.13;;;13.30;99.90;;;;;;5019793;28;20228;-50
2022/04/15 00:21:22;;;;;;;10.45;8.75;;;13.10;99.90;;;;;;5019422;28;20431;-52
2022/04/15 00:23:54;;;;;;;8.82;7.93;;;13.00;99.90;;;;;;5019727;28;20204;-49
2022/04/15 00:26:21;;;;;;;9.55;8.55;;;13.00;99.90;;;;;;5019966;28;20243;-51
2022/04/15 00:28:52;;;;;;;10.02;9.00;;;13.00;99.90;;;;;;5019277;28;20412;-49
2022/04/15 00:31:19;;;;;;;8.38;7.45;;;13.00;99.90;;;;;;5018958;28;20213;-51
2022/04/15 00:33:50;;;;;;;9.88;8.95;;;13.10;99.90;;;;;;5019245;28;20412;-49
2022/04/15 00:36:17;;;;;;;8.48;7.70;;;13.00;99.90;;;;;;5022767;28;20439;-53
2022/04/15 00:38:45;;;;;;;13.23;8.65;;;13.00;99.90;;;;;;5021181;28;20401;-49
2022/04/15 00:41:16;;;;;;;8.45;7.65;;;12.90;99.90;;;;;;5019486;28;20267;-52
2022/04/15 00:43:44;;;;;;;7.22;6.50;;;12.80;99.90;;;;;;5019151;28;20488;-48
2022/04/15 00:46:12;;;;;;;6.32;5.72;;;12.80;99.90;;;;;;5021284;28;20204;-49
2022/04/15 00:48:43;;;;;;;7.40;6.40;;;12.70;99.90;;;;;;5019418;28;20250;-50
2022/04/15 00:51:13;;;;;;;4.70;4.30;;;12.60;99.90;;;;;;5020179;28;20204;-52
2022/04/15 00:53:42;;;;;;;7.20;5.05;;;12.60;99.90;;;;;;5025245;28;20204;-50
2022/04/15 00:56:11;;;;;;;5.18;4.53;;;12.70;99.90;;;;;;5023722;28;20207;-50
2022/04/15 00:58:40;;;;;;;7.13;4.90;;;12.60;99.90;;;;;;5020318;28;20547;-52
2022/04/15 01:01:07;;;;;;;4.60;3.92;;;12.60;99.90;;;;;;5019546;28;20225;-51
2022/04/15 01:03:36;;;;;;;4.93;4.53;;;12.60;99.90;;;;;;5022175;28;20551;-54
2022/04/15 01:06:06;;;;;;;8.27;5.78;;;12.50;99.90;;;;;;5019320;28;20212;-53
2022/04/15 01:08:38;;;;;;;9.20;6.07;;;12.50;99.90;;;;;;5021669;28;20220;-48
2022/04/15 01:11:07;;;;;;;5.70;4.93;;;12.30;99.90;;;;;;5019223;28;20424;-46
2022/04/15 01:13:36;;;;;;;9.27;6.10;;;12.30;99.90;;;;;;5019417;28;20209;-53
2022/04/15 01:16:05;;;;;;;6.90;5.30;;;12.20;99.90;;;;;;5019675;28;20488;-51
2022/04/15 01:18:33;;;;;;;7.03;6.32;;;12.30;99.90;;;;;;5019839;28;20432;-47
2022/04/15 01:21:00;;;;;;;6.57;5.97;;;12.30;99.90;;;;;;5025798;28;20231;-50
2022/04/15 01:23:27;;;;;;;9.60;6.22;;;12.30;99.90;;;;;;5022989;28;20273;-49
2022/04/15 01:25:55;;;;;;;6.40;5.63;;;12.30;99.90;;;;;;5026148;28;20443;-47
2022/04/15 01:28:22;;;;;;;7.25;6.60;;;12.30;99.90;;;;;;5022831;28;20436;-46
2022/04/15 01:30:50;;;;;;;6.68;5.97;;;12.30;99.90;;;;;;5023057;28;20208;-49
2022/04/15 01:33:18;;;;;;;9.10;5.90;;;12.30;99.90;;;;;;5023204;28;20255;-49
2022/04/15 01:35:49;;;;;;;6.50;5.90;;;12.30;99.90;;;;;;5026225;28;20211;-47
2022/04/15 01:38:17;;;;;;;6.43;5.72;;;12.40;99.90;;;;;;5025868;28;20224;-52
2022/04/15 01:40:45;;;;;;;6.80;6.05;;;12.40;99.90;;;;;;5025867;28;20385;-52
2022/04/15 01:43:12;;;;;;;7.47;6.75;;;12.40;99.90;;;;;;5024115;28;20201;-49
2022/04/15 01:45:40;;;;;;;10.07;7.53;;;12.40;99.90;;;;;;5022822;28;20196;-50
2022/04/15 01:48:07;;;;;;;7.43;6.72;;;12.20;99.90;;;;;;5026159;28;20357;-49
2022/04/15 01:50:35;;;;;;;9.40;6.43;;;12.10;99.90;;;;;;5022957;28;20208;-49
2022/04/15 01:53:02;;;;;;;8.82;7.90;;;12.10;99.90;;;;;;5023200;28;20211;-52
2022/04/15 01:55:30;;;;;;;8.63;7.72;;;12.20;99.90;;;;;;5027844;28;20292;-49
2022/04/15 01:57:58;;;;;;;8.75;8.00;;;12.20;99.90;;;;;;5023399;28;20388;-47
2022/04/15 02:00:25;;;;;;;9.10;8.30;;;12.10;99.90;;;;;;5023120;28;20199;-53
2022/04/15 02:02:53;;;;;;;9.68;7.28;;;12.10;99.90;;;;;;5022601;28;20562;-52
2022/04/15 02:05:20;;;;;;;10.65;8.00;;;12.10;99.90;;;;;;5028682;28;20257;-47
2022/04/15 02:07:47;;;;;;;11.50;9.10;;;12.20;99.90;;;;;;5022145;28;20232;-50
2022/04/15 02:10:15;;;;;;;8.07;7.20;;;12.20;99.90;;;;;;5030672;28;20213;-51
2022/04/15 02:12:42;;;;;;;9.07;6.70;;;12.20;99.90;;;;;;5022363;28;20227;-50
2022/04/15 02:15:10;;;;;;;9.60;8.15;;;12.20;99.90;;;;;;5023337;28;20200;-48
2022/04/15 02:17:37;;;;;;;9.05;8.13;;;12.20;99.90;;;;;;5025385;28;20274;-51
2022/04/15 02:20:05;;;;;;;8.48;7.70;;;12.10;99.90;;;;;;5025412;28;20209;-50
2022/04/15 02:22:32;;;;;;;8.82;8.02;;;12.10;99.90;;;;;;5025049;28;20279;-48
2022/04/15 02:25:00;;;;;;;7.10;6.47;;;12.10;99.90;;;;;;5025924;28;20254;-48
2022/04/15 02:27:27;;;;;;;7.88;7.13;;;12.20;99.90;;;;;;5023043;28;20518;-50
2022/04/15 02:29:54;;;;;;;10.50;8.32;;;12.20;99.90;;;;;;5024422;28;20216;-47
2022/04/15 02:32:25;;;;;;;6.60;6.10;;;12.30;99.90;;;;;;5022880;28;20209;-48
2022/04/15 02:34:52;;;;;;;8.70;7.82;;;12.40;99.90;;;;;;5024023;28;20228;-54
2022/04/15 02:37:21;;;;;;;8.02;7.22;;;12.50;99.90;;;;;;5026015;28;20211;-47
2022/04/15 02:39:49;;;;;;;8.50;7.80;;;12.60;99.90;;;;;;5022194;28;20239;-48
2022/04/15 02:42:17;;;;;;;9.02;8.13;;;12.50;99.90;;;;;;5022916;28;20255;-49
2022/04/15 02:44:44;;;;;;;9.52;8.15;;;12.50;99.90;;;;;;5022827;28;20196;-54
2022/04/15 02:47:11;;;;;;;7.88;7.13;;;12.60;99.90;;;;;;5023043;28;20205;-46
2022/04/15 02:49:39;;;;;;;8.25;7.45;;;12.80;99.90;;;;;;5022598;28;20263;-50
2022/04/15 02:52:09;;;;;;;7.57;6.82;;;12.70;99.90;;;;;;5023157;28;20463;-50
2022/04/15 02:54:36;;;;;;;6.60;6.00;;;12.60;99.90;;;;;;5025010;28;20523;-50
2022/04/15 02:57:04;;;;;;;8.70;7.72;;;12.60;99.90;;;;;;5023192;28;20208;-51
2022/04/15 02:59:31;;;;;;;7.28;6.65;;;12.70;99.90;;;;;;5022284;28;20220;-49
2022/04/15 03:01:58;;;;;;;6.78;6.18;;;12.80;99.90;;;;;;5022515;28;20439;-47
2022/04/15 03:04:25;;;;;;;9.52;7.60;;;12.70;99.90;;;;;;5022199;28;20197;-50
2022/04/15 03:06:53;;;;;;;6.82;5.50;;;12.80;99.90;;;;;;5024623;28;20217;-49
2022/04/15 03:09:23;;;;;;;7.63;6.70;;;12.70;99.90;;;;;;5022015;28;20439;-50
2022/04/15 03:11:51;;;;;;;7.28;6.65;;;12.80;99.90;;;;;;5024875;28;20203;-48
2022/04/15 03:14:18;;;;;;;8.68;7.88;;;12.70;99.90;;;;;;5021706;28;20244;-50
2022/04/15 03:16:46;;;;;;;10.00;7.97;;;12.80;99.90;;;;;;5021993;28;20263;-50
2022/04/15 03:19:13;;;;;;;10.85;8.55;;;12.50;99.90;;;;;;5022838;28;20304;-52
2022/04/15 03:21:41;;;;;;;9.20;8.18;;;12.60;99.90;;;;;;5021834;28;20224;-49
2022/04/15 03:24:08;;;;;;;13.73;10.70;;;12.70;99.90;;;;;;5025381;28;20288;-47
2022/04/15 03:26:35;;;;;;;10.02;9.07;;;12.70;99.90;;;;;;5022242;28;20244;-51
2022/04/15 03:29:03;;;;;;;10.35;9.35;;;13.00;99.90;;;;;;5023116;28;20230;-48
2022/04/15 03:31:30;;;;;;;12.60;9.35;;;12.80;99.90;;;;;;5022321;28;20423;-47
2022/04/15 03:33:58;;;;;;;14.25;9.45;;;12.70;99.90;;;;;;5023536;28;20201;-49
2022/04/15 03:36:25;;;;;;;12.38;10.15;;;12.40;99.90;;;;;;5024167;28;20220;-49
2022/04/15 03:38:52;;;;;;;14.00;11.07;;;12.30;99.90;;;;;;5026703;28;20441;-47
2022/04/15 03:41:20;;;;;;;11.13;10.02;;;12.30;99.90;;;;;;5022942;28;20287;-47
2022/04/15 03:43:48;;;;;;;10.77;8.90;;;12.20;99.90;;;;;;5021717;28;20245;-50
2022/04/15 03:46:15;;;;;;;9.95;8.95;;;12.00;99.90;;;;;;5024956;28;20471;-48
2022/04/15 03:48:43;;;;;;;11.43;10.32;;;12.00;99.90;;;;;;5023035;28;20221;-49
2022/04/15 03:51:11;;;;;;;11.80;10.40;;;12.00;99.90;;;;;;5022732;28;20550;-50
2022/04/15 03:53:39;;;;;;;14.82;11.02;;;12.00;99.90;;;;;;5021372;28;20274;-50
2022/04/15 03:56:07;;;;;;;12.05;10.52;;;12.00;99.90;;;;;;5022397;28;20197;-47
2022/04/15 03:58:35;;;;;;;13.65;11.35;;;11.90;99.90;;;;;;5021085;28;20267;-47
2022/04/15 04:01:05;;;;;;;11.90;10.70;;;11.80;99.90;;;;;;5023270;28;20201;-48
2022/04/15 04:03:33;;;;;;;12.98;10.75;;;11.70;99.90;;;;;;5025335;28;20223;-47
2022/04/15 04:06:00;;;;;;;18.80;11.73;;;11.70;99.90;;;;;;5031849;28;20336;-48
2022/04/15 04:08:28;;;;;;;16.60;12.02;;;11.80;99.90;;;;;;5022424;28;20560;-50
2022/04/15 04:10:56;;;;;;;13.52;11.80;;;11.70;99.90;;;;;;5025897;28;20211;-51
2022/04/15 04:13:23;;;;;;;18.98;13.10;;;11.70;99.90;;;;;;5021235;28;20448;-51
2022/04/15 04:15:51;;;;;;;17.23;11.73;;;11.60;99.90;;;;;;5020527;28;20438;-53
2022/04/15 04:18:21;;;;;;;16.38;12.07;;;11.50;99.90;;;;;;5021287;28;20464;-51
2022/04/15 04:20:48;;;;;;;19.90;15.35;;;11.50;99.90;;;;;;5023877;28;20211;-49
2022/04/15 04:23:19;;;;;;;22.65;14.07;;;11.40;99.90;;;;;;5021679;28;20462;-51
2022/04/15 04:25:46;;;;;;;15.10;12.55;;;11.40;99.90;;;;;;5023858;28;20246;-49
2022/04/15 04:28:14;;;;;;;17.50;12.65;;;11.30;99.90;;;;;;5022818;28;20299;-48
2022/04/15 04:30:41;;;;;;;16.58;14.02;;;11.30;99.90;;;;;;5021173;28;20385;-48
2022/04/15 04:33:09;;;;;;;22.63;14.43;;;11.20;99.90;;;;;;5021989;28;20436;-51
2022/04/15 04:35:39;;;;;;;14.68;12.52;;;11.10;99.90;;;;;;5021821;28;20226;-49
2022/04/15 04:38:07;;;;;;;15.45;12.93;;;11.00;99.90;;;;;;5023248;28;20216;-49
2022/04/15 04:40:35;;;;;;;13.65;11.95;;;11.00;99.90;;;;;;5020169;28;20466;-52
2022/04/15 04:43:05;;;;;;;20.40;16.45;;;11.30;99.90;;;;;;5022279;28;20245;-47
2022/04/15 04:45:33;;;;;;;18.98;13.63;;;11.40;99.90;;;;;;5023921;28;20200;-50
2022/04/15 04:48:03;;;;;;;21.92;16.20;;;11.50;99.90;;;;;;5022171;28;20228;-50
2022/04/15 04:50:31;;;;;;;17.13;14.63;;;11.60;99.90;;;;;;5021743;28;20262;-47
2022/04/15 04:52:59;;;;;;;18.85;16.20;;;11.70;99.90;;;;;;5024454;28;20444;-48
2022/04/15 04:55:27;;;;;;;18.48;15.52;;;11.60;99.90;;;;;;5023653;28;20224;-49
2022/04/15 04:57:55;;;;;;;21.05;16.70;;;11.60;99.90;;;;;;5021696;28;20224;-48
2022/04/15 05:00:22;;;;;;;22.15;16.08;;;11.60;99.90;;;;;;5025848;28;20262;-51
2022/04/15 05:02:50;;;;;;;20.73;14.30;;;11.70;99.90;;;;;;5021684;28;20435;-48
2022/04/15 05:05:17;;;;;;;22.70;16.70;;;11.80;99.90;;;;;;5021181;28;20208;-53
2022/04/15 05:07:45;;;;;;;15.98;14.35;;;11.90;99.90;;;;;;5020957;28;20240;-50
2022/04/15 05:10:12;;;;;;;18.23;13.77;;;12.10;99.90;;;;;;5022864;28;20197;-48
2022/04/15 05:12:39;;;;;;;17.67;14.05;;;12.10;99.90;;;;;;5022820;28;20241;-50
2022/04/15 05:15:07;;;;;;;17.83;15.35;;;12.20;99.90;;;;;;5021703;28;20240;-49
2022/04/15 05:17:34;;;;;;;16.75;14.13;;;12.20;99.90;;;;;;5020654;28;20224;-50
2022/04/15 05:20:01;;;;;;;19.48;16.33;;;12.10;99.90;;;;;;5020721;28;20503;-52
2022/04/15 05:22:28;;;;;;;15.93;14.23;;;12.10;99.90;;;;;;5019241;28;20467;-47
2022/04/15 05:24:56;;;;;;;15.27;12.85;;;12.10;99.90;;;;;;5019798;28;20511;-49
2022/04/15 05:27:23;;;;;;;22.17;13.55;;;12.10;99.90;;;;;;5021905;28;20216;-47
2022/04/15 05:29:50;;;;;;;14.43;12.30;;;12.20;99.90;;;;;;5019830;28;20424;-50
2022/04/15 05:32:18;;;;;;;14.80;13.27;;;12.30;99.90;;;;;;5022815;28;20208;-48
2022/04/15 05:34:46;;;;;;;17.40;13.73;;;12.30;99.90;;;;;;5019898;28;20201;-51
2022/04/15 05:37:13;;;;;;;18.10;14.65;;;12.40;99.90;;;;;;5024919;28;20212;-50
2022/04/15 05:39:40;;;;;;;19.45;13.55;;;12.50;99.90;;;;;;5022316;28;20443;-53
2022/04/15 05:42:08;;;;;;;19.48;13.38;;;12.50;99.90;;;;;;5020231;28;20248;-52
2022/04/15 05:44:35;;;;;;;22.25;14.02;;;12.80;99.90;;;;;;5019835;28;20197;-47
2022/04/15 05:47:03;;;;;;;17.38;14.05;;;13.20;99.90;;;;;;5020907;28;20435;-47
2022/04/15 05:49:34;;;;;;;18.25;15.60;;;13.40;99.90;;;;;;5019984;28;20224;-51
2022/04/15 05:52:01;;;;;;;15.52;12.55;;;13.70;99.90;;;;;;5020442;28;20212;-48
2022/04/15 05:54:29;;;;;;;13.98;12.15;;;13.90;99.90;;;;;;5019424;28;20302;-51
2022/04/15 05:56:56;;;;;;;14.10;12.30;;;13.90;99.90;;;;;;5020535;28;20215;-50
2022/04/15 05:59:24;;;;;;;14.20;11.60;;;14.10;99.90;;;;;;5019226;28;20460;-51
2022/04/15 06:01:51;;;;;;;14.05;12.50;;;14.20;99.90;;;;;;5018959;28;20224;-50
2022/04/15 06:04:19;;;;;;;11.05;10.00;;;14.30;99.90;;;;;;5020218;28;20235;-49
2022/04/15 06:06:47;;;;;;;15.35;10.75;;;14.20;99.90;;;;;;5021933;28;20429;-52
2022/04/15 06:09:16;;;;;;;11.95;10.70;;;14.00;99.90;;;;;;5032845;28;20227;-54
2022/04/15 06:11:43;;;;;;;13.88;9.75;;;14.20;99.90;;;;;;5025659;28;20201;-48
2022/04/15 06:14:10;;;;;;;12.50;11.20;;;14.40;99.90;;;;;;5024523;28;20252;-51
2022/04/15 06:16:42;;;;;;;11.88;10.75;;;14.50;99.90;;;;;;5023309;28;20248;-50
2022/04/15 06:19:09;;;;;;;12.05;10.75;;;14.70;99.90;;;;;;5023382;28;20265;-49
2022/04/15 06:21:50;;;;;;;11.82;10.15;;;14.60;99.90;;;;;;5031017;28;20253;-54
2022/04/15 06:24:17;;;;;;;12.32;9.68;;;14.30;99.90;;;;;;5026928;28;20504;-51
2022/04/15 06:26:44;;;;;;;13.43;11.95;;;14.10;99.90;;;;;;5029772;28;20235;-51
2022/04/15 06:29:15;;;;;;;14.00;12.30;;;13.80;99.90;;;;;;5033883;28;20224;-50
2022/04/15 06:31:42;;;;;;;16.48;12.77;;;13.60;99.90;;;;;;5029361;28;20189;-52
2022/04/15 06:34:09;;;;;;;15.00;13.35;;;13.60;99.90;;;;;;5031085;28;20239;-49
2022/04/15 06:36:37;;;;;;;17.10;13.95;;;13.60;99.90;;;;;;5025722;28;20419;-52
2022/04/15 06:39:04;;;;;;;14.90;13.40;;;13.90;99.90;;;;;;5038066;28;20468;-51
2022/04/15 06:41:31;;;;;;;18.45;13.18;;;14.70;99.90;;;;;;5029184;28;20244;-49
2022/04/15 06:43:58;;;;;;;13.10;10.70;;;15.50;99.90;;;;;;5042692;28;20506;-51
2022/04/15 06:46:25;;;;;;;16.10;11.10;;;15.80;99.90;;;;;;5032309;28;20410;-49
2022/04/15 06:48:52;;;;;;;13.50;12.10;;;16.10;99.90;;;;;;5039961;28;20457;-51
2022/04/15 06:51:20;;;;;;;14.07;11.27;;;16.90;99.90;;;;;;5038629;28;20412;-51
2022/04/15 06:53:47;;;;;;;14.53;12.67;;;18.00;99.90;;;;;;5040049;28;20411;-48
2022/04/15 06:56:20;;;;;;;13.10;10.87;;;18.60;99.90;;;;;;5039883;28;20437;-52
2022/04/15 06:58:48;;;;;;;14.07;10.60;;;17.70;99.90;;;;;;5039868;28;20435;-51
2022/04/15 07:01:16;;;;;;;12.87;10.87;;;18.20;99.90;;;;;;5031435;28;20615;-53
2022/04/15 07:03:43;;;;;;;14.80;11.47;;;18.40;99.90;;;;;;5025500;28;20478;-54
2022/04/15 07:06:10;;;;;;;12.57;11.27;;;19.40;99.90;;;;;;5037298;28;20792;-51
2022/04/15 07:08:37;;;;;;;15.13;12.00;;;21.00;99.90;;;;;;5055227;28;20458;-54
2022/04/15 07:11:05;;;;;;;11.63;9.90;;;22.00;99.90;;;;;;5042894;28;20439;-51
2022/04/15 07:13:37;;;;;;;13.03;11.60;;;22.50;99.90;;;;;;5039509;28;20404;-52
2022/04/15 07:16:04;;;;;;;12.50;11.03;;;22.10;99.90;;;;;;5039623;28;20435;-48
2022/04/15 07:18:31;;;;;;;12.07;10.33;;;21.30;99.90;;;;;;5038351;28;20532;-51
2022/04/15 07:20:59;;;;;;;12.40;11.23;;;22.10;99.90;;;;;;5039305;28;20579;-49
2022/04/15 07:23:26;;;;;;;12.90;11.60;;;22.80;99.90;;;;;;5039423;28;20483;-49
2022/04/15 07:25:54;;;;;;;15.30;10.97;;;23.20;99.90;;;;;;5039244;28;20433;-53
2022/04/15 07:28:21;;;;;;;13.13;11.10;;;21.70;99.90;;;;;;5039671;28;20598;-48
2022/04/15 07:30:48;;;;;;;15.60;11.30;;;20.00;99.90;;;;;;5039244;28;20531;-54
2022/04/15 07:33:16;;;;;;;16.20;12.23;;;19.10;99.90;;;;;;5035472;28;20446;-51
2022/04/15 07:35:43;;;;;;;12.20;11.00;;;18.70;99.90;;;;;;5054165;28;20525;-48
2022/04/15 07:38:14;;;;;;;12.67;11.47;;;19.70;99.90;;;;;;5059199;28;20522;-50
2022/04/15 07:40:41;;;;;;;11.50;10.30;;;19.40;99.90;;;;;;5059487;28;20429;-52
2022/04/15 07:43:09;;;;;;;11.90;9.93;;;18.80;99.90;;;;;;5058903;28;20465;-52
2022/04/15 07:45:36;;;;;;;15.63;10.57;;;18.00;99.90;;;;;;5059886;28;20428;-49
2022/04/15 07:48:04;;;;;;;12.87;10.43;;;17.40;99.90;;;;;;5058645;28;20479;-48
2022/04/15 07:50:31;;;;;;;11.83;9.00;;;17.10;99.90;;;;;;5060349;28;20410;-52
2022/04/15 07:53:00;;;;;;;12.30;9.80;;;16.40;99.90;;;;;;5068421;28;20440;-51
2022/04/15 07:55:27;;;;;;;11.30;10.20;;;16.20;99.90;;;;;;5069474;28;20425;-52
2022/04/15 07:57:55;;;;;;;13.20;11.67;;;16.60;99.90;;;;;;5068766;28;20855;-52
2022/04/15 08:00:22;;;;;;;11.07;9.10;;;17.30;99.90;;;;;;5064445;28;20710;-55
2022/04/15 08:02:49;;;;;;;12.43;10.57;;;17.60;99.90;;;;;;5061572;28;20483;-52
2022/04/15 08:05:16;;;;;;;12.07;10.00;;;18.30;99.90;;;;;;5060167;28;20442;-54
2022/04/15 08:07:44;;;;;;;13.40;10.53;;;20.70;99.90;;;;;;5058570;28;20612;-50
2022/04/15 08:10:11;;;;;;;9.00;8.10;;;22.70;99.90;;;;;;5058501;28;20419;-52
2022/04/15 08:12:38;;;;;;;10.73;9.30;;;21.90;99.90;;;;;;5058745;28;20808;-48
2022/04/15 08:15:07;;;;;;;9.70;8.73;;;20.80;99.90;;;;;;5058580;28;20495;-48
2022/04/15 08:17:35;;;;;;;11.50;9.43;;;19.80;99.90;;;;;;5058402;28;20468;-52
2022/04/15 08:20:03;;;;;;;13.50;9.10;;;19.00;99.90;;;;;;5058363;28;20418;-51
2022/04/15 08:22:35;;;;;;;10.83;8.73;;;18.80;99.90;;;;;;5058063;28;20522;-49
2022/04/15 08:25:04;;;;;;;12.10;8.43;;;19.60;99.90;;;;;;5058600;28;20410;-54
2022/04/15 08:27:31;;;;;;;14.80;9.10;;;20.70;99.90;;;;;;5057719;28;20499;-50
2022/04/15 08:29:59;;;;;;;12.10;8.17;;;22.30;99.90;;;;;;5049022;28;20597;-51
2022/04/15 08:32:32;;;;;;;11.63;8.67;;;23.10;99.90;;;;;;5038395;28;20441;-53
2022/04/15 08:35:08;;;;;;;10.37;8.43;;;22.60;99.90;;;;;;5038138;28;20440;-49
2022/04/15 08:37:39;;;;;;;9.20;8.27;;;21.60;99.90;;;;;;5038807;28;20460;-50
2022/04/15 08:40:07;;;;;;;8.23;7.53;;;21.50;99.90;;;;;;5048225;28;20763;-51
2022/04/15 08:42:35;;;;;;;14.23;8.57;;;20.60;99.90;;;;;;5040934;28;20475;-52
2022/04/15 08:45:05;;;;;;;10.23;9.17;;;20.20;99.90;;;;;;5034387;28;20540;-50
2022/04/15 08:47:33;;;;;;;9.60;8.67;;;19.70;99.90;;;;;;5040303;28;20496;-51
2022/04/15 08:50:00;;;;;;;12.43;10.90;;;19.90;99.90;;;;;;5055217;28;20494;-54
2022/04/15 08:52:28;;;;;;;10.53;9.43;;;20.60;99.90;;;;;;5058145;28;20481;-51
2022/04/15 08:54:55;;;;;;;9.93;8.77;;;21.10;99.90;;;;;;5057970;28;20461;-49
2022/04/15 08:57:22;;;;;;;11.13;8.40;;;21.70;99.90;;;;;;5057688;28;20480;-49
2022/04/15 08:59:50;;;;;;;11.27;8.33;;;23.10;99.90;;;;;;5058089;28;20425;-48
2022/04/15 09:02:33;;;;;;;8.37;7.13;;;23.40;99.90;;;;;;5057866;28;20407;-53
2022/04/15 09:05:01;;;;;;;8.27;7.20;;;21.80;99.90;;;;;;5058408;28;20413;-48
2022/04/15 09:07:29;;;;;;;9.93;8.93;;;20.40;99.90;;;;;;5063549;28;20460;-54
2022/04/15 09:10:04;;;;;;;9.60;7.87;;;19.30;99.90;;;;;;5063448;28;20424;-50
2022/04/15 09:12:35;;;;;;;8.37;7.30;;;18.80;99.90;;;;;;5058932;28;20435;-51
2022/04/15 09:15:06;;;;;;;11.00;8.60;;;18.00;99.90;;;;;;5057987;28;20413;-48
2022/04/15 09:17:54;;;;;;;12.40;9.33;;;17.20;99.90;;;;;;5034435;28;20441;-49
2022/04/15 09:20:23;;;;;;;10.00;8.57;;;16.50;99.90;;;;;;5018923;28;20416;-54
2022/04/15 09:22:55;;;;;;;5.90;5.40;;;15.40;99.90;;;;;;5018266;28;20450;-48
2022/04/15 09:25:26;;;;;;;7.20;6.27;;;14.70;99.90;;;;;;5017871;28;20760;-52
2022/04/15 09:27:55;;;;;;;7.38;6.45;;;14.30;99.90;;;;;;5017928;28;20452;-47
2022/04/15 09:30:38;;;;;;;5.97;5.43;;;14.10;99.90;;;;;;5018934;28;20338;-54
2022/04/15 09:33:06;;;;;;;5.53;5.00;;;14.00;99.90;;;;;;5020422;28;20201;-50
2022/04/15 09:35:33;;;;;;;5.70;4.38;;;13.90;99.90;;;;;;5018637;28;20203;-57
2022/04/15 09:38:03;;;;;;;4.50;4.10;;;13.80;99.90;;;;;;5018728;28;20253;-54
2022/04/15 09:40:37;;;;;;;6.25;4.47;;;13.60;99.90;;;;;;5020141;28;20241;-49
2022/04/15 09:43:06;;;;;;;5.25;4.68;;;13.70;99.90;;;;;;5021277;28;20221;-51
2022/04/15 09:45:37;;;;;;;6.18;4.30;;;13.70;99.90;;;;;;5022202;28;20271;-48
2022/04/15 09:48:06;;;;;;;4.93;4.32;;;13.80;99.90;;;;;;5021310;28;20216;-48
2022/04/15 09:50:41;;;;;;;4.18;3.28;;;13.60;99.90;;;;;;5021813;28;20243;-49
2022/04/15 09:53:17;;;;;;;3.15;2.85;;;13.80;99.90;;;;;;5021549;28;20204;-49
2022/04/15 09:55:47;;;;;;;4.10;3.55;;;13.90;99.90;;;;;;5021603;28;20201;-51
2022/04/15 09:58:23;;;;;;;3.45;2.75;;;14.00;99.90;;;;;;5021337;28;20244;-48
2022/04/15 10:00:53;;;;;;;2.65;2.13;;;14.20;99.90;;;;;;5021072;28;20254;-54
2022/04/15 10:03:25;;;;;;;6.70;4.13;;;14.60;99.90;;;;;;5021725;28;20224;-50
2022/04/15 10:05:58;;;;;;;4.32;3.92;;;15.10;99.90;;;;;;5021205;28;20198;-52
2022/04/15 10:08:26;;;;;;;4.05;3.55;;;15.20;99.90;;;;;;5021392;28;20606;-47
2022/04/15 10:10:55;;;;;;;4.30;3.67;;;15.40;99.90;;;;;;5021152;28;20252;-46
2022/04/15 10:13:27;;;;;;;8.00;4.10;;;15.30;99.90;;;;;;5035771;28;20449;-49
2022/04/15 10:15:56;;;;;;;4.05;3.70;;;15.20;99.90;;;;;;5037128;28;20210;-51
2022/04/15 10:18:24;;;;;;;4.17;3.80;;;15.20;99.90;;;;;;5032350;28;20289;-50
2022/04/15 10:20:52;;;;;;;4.40;4.03;;;15.30;99.90;;;;;;5030766;28;20443;-48
2022/04/15 10:23:21;;;;;;;5.17;4.67;;;15.40;99.90;;;;;;5030707;28;20552;-49
2022/04/15 10:25:50;;;;;;;6.87;5.37;;;15.60;99.90;;;;;;5023851;28;20549;-50
2022/04/15 10:28:19;;;;;;;7.07;5.50;;;15.80;99.90;;;;;;5028835;28;20607;-48
2022/04/15 10:31:13;;;;;;;6.83;6.13;;;15.80;99.90;;;;;;5028699;28;20630;-54
2022/04/15 10:33:41;;;;;;;8.15;5.78;;;15.40;99.90;;;;;;5039233;28;20620;-53
2022/04/15 10:36:20;;;;;;;6.70;6.10;;;15.20;99.90;;;;;;5052017;28;20205;-49
2022/04/15 10:39:11;;;;;;;7.00;5.57;;;15.10;99.90;;;;;;5052200;28;20536;-50
2022/04/15 10:41:42;;;;;;;8.02;6.68;;;14.80;99.90;;;;;;5043301;28;20444;-50
2022/04/15 10:44:28;;;;;;;7.10;6.43;;;14.60;99.90;;;;;;5058913;28;20248;-50
2022/04/15 10:46:59;;;;;;;8.55;6.85;;;14.40;99.90;;;;;;5058976;28;20200;-52
2022/04/15 10:49:30;;;;;;;8.55;7.07;;;14.40;99.90;;;;;;5060246;28;20278;-50
2022/04/15 10:52:18;;;;;;;6.20;5.27;;;14.50;99.90;;;;;;5059241;28;20242;-48
2022/04/15 10:54:54;;;;;;;11.43;7.57;;;14.70;99.90;;;;;;5060199;28;20439;-52
2022/04/15 10:57:40;;;;;;;8.43;7.25;;;14.80;99.90;;;;;;5059691;28;20247;-50
2022/04/15 11:03:20;;;;;;;8.57;6.15;;;14.70;99.90;;;;;;5059975;28;20208;-53
2022/04/15 11:05:48;;;;;;;8.30;6.25;;;14.50;99.90;;;;;;5059701;28;20195;-52
2022/04/15 11:08:18;;;;;;;7.20;5.35;;;14.60;99.90;;;;;;5060049;28;20279;-51
2022/04/15 11:10:51;;;;;;;6.45;5.85;;;14.90;99.90;;;;;;5059723;28;20196;-54
2022/04/15 11:13:40;;;;;;;8.48;5.70;;;15.00;99.90;;;;;;5059598;28;20524;-51
2022/04/15 11:16:08;;;;;;;7.88;7.10;;;15.10;99.90;;;;;;5060027;28;20199;-49
2022/04/15 11:18:53;;;;;;;8.75;4.93;;;15.20;99.90;;;;;;5059580;28;20221;-51
2022/04/15 11:21:37;;;;;;;6.65;5.80;;;15.20;99.90;;;;;;5059910;28;20199;-52
2022/04/15 11:24:06;;;;;;;5.05;4.65;;;14.90;99.90;;;;;;5059420;28;20232;-51
2022/04/15 11:26:35;;;;;;;10.82;5.70;;;14.90;99.90;;;;;;5059720;28;20218;-51
2022/04/15 11:29:06;;;;;;;4.70;4.30;;;14.70;99.90;;;;;;5059480;28;20286;-53
2022/04/15 11:31:37;;;;;;;6.03;4.47;;;14.60;99.90;;;;;;5059471;28;20204;-52
2022/04/15 11:34:10;;;;;;;5.30;4.20;;;14.60;99.90;;;;;;5059784;28;20208;-53
2022/04/15 11:36:43;;;;;;;4.00;3.60;;;14.90;99.90;;;;;;5059151;28;20211;-52
2022/04/15 11:39:16;;;;;;;3.83;3.10;;;15.20;99.90;;;;;;5059735;28;20220;-50
2022/04/15 11:41:49;;;;;;;4.90;4.07;;;15.70;99.90;;;;;;5058592;28;20413;-53
2022/04/15 11:44:18;;;;;;;5.00;4.00;;;15.90;99.90;;;;;;5059059;28;20456;-49
2022/04/15 11:47:24;;;;;;;4.55;4.15;;;15.80;99.90;;;;;;5059027;28;20400;-52
2022/04/15 11:49:51;;;;;;;10.07;5.13;;;15.20;99.90;;;;;;5059051;28;20205;-49
2022/04/15 11:52:27;;;;;;;4.97;4.50;;;14.70;99.90;;;;;;5059353;28;20188;-50
2022/04/15 11:54:56;;;;;;;7.05;5.32;;;14.30;99.90;;;;;;5058832;28;20246;-52
2022/04/15 11:57:23;;;;;;;5.47;4.63;;;14.20;99.90;;;;;;5058701;28;20208;-53
2022/04/15 11:59:51;;;;;;;9.20;5.72;;;14.10;99.90;;;;;;5059009;28;20422;-50
2022/04/15 12:02:20;;;;;;;5.85;5.25;;;14.00;99.90;;;;;;5058535;28;20270;-50
2022/04/15 12:04:56;;;;;;;6.03;4.47;;;14.10;99.90;;;;;;5058044;28;20537;-52
2022/04/15 12:07:24;;;;;;;5.20;4.80;;;14.60;99.90;;;;;;5058890;28;20274;-52
2022/04/15 12:09:53;;;;;;;5.22;4.70;;;15.00;99.90;;;;;;5059331;28;20274;-52
2022/04/15 12:12:23;;;;;;;4.93;4.50;;;15.20;99.90;;;;;;5059365;28;20195;-50
2022/04/15 12:14:52;;;;;;;4.53;4.13;;;15.10;99.90;;;;;;5058801;28;20224;-49
2022/04/15 12:17:20;;;;;;;4.53;4.03;;;15.00;99.90;;;;;;5059749;28;20206;-48
2022/04/15 12:19:48;;;;;;;5.15;4.72;;;14.80;99.90;;;;;;5058925;28;20205;-51
2022/04/15 12:22:16;;;;;;;4.70;4.25;;;14.40;99.90;;;;;;5058495;28;20200;-55
2022/04/15 12:24:43;;;;;;;4.30;3.90;;;14.00;99.90;;;;;;5058445;28;20224;-50
2022/04/15 12:27:32;;;;;;;4.53;4.07;;;13.70;99.90;;;;;;5058333;28;20241;-49
2022/04/15 12:30:00;;;;;;;5.53;4.90;;;13.70;99.90;;;;;;5058782;28;20238;-51
2022/04/15 12:32:42;;;;;;;5.38;4.38;;;13.70;99.90;;;;;;5058224;28;20207;-51
2022/04/15 12:35:13;;;;;;;8.15;5.25;;;13.50;99.90;;;;;;5058365;28;20245;-50
2022/04/15 12:37:49;;;;;;;4.90;4.50;;;13.20;99.90;;;;;;5057632;28;20219;-51
2022/04/15 12:40:17;;;;;;;6.63;5.40;;;13.30;99.90;;;;;;5058434;28;20506;-51
2022/04/15 12:42:50;;;;;;;6.32;5.72;;;13.30;99.90;;;;;;5058262;28;20238;-49
2022/04/15 12:45:21;;;;;;;4.95;4.35;;;13.40;99.90;;;;;;5058699;28;20526;-51
2022/04/15 12:48:03;;;;;;;5.00;4.50;;;13.60;99.90;;;;;;5057896;28;20241;-52
2022/04/15 12:50:35;;;;;;;6.57;4.80;;;13.60;99.90;;;;;;5058673;28;20218;-48
2022/04/15 12:53:22;;;;;;;6.65;5.95;;;13.50;99.90;;;;;;5057980;28;20202;-52